Time;durP1;ratioP1;P1;durP2;ratioP2;P2;SDS_P1;SDS_P2;PMS_P1;PMS_P2;Temp;Humidity;BMP_temperature;BMP_pressure;BME280_temperature;BME280_humidity;BME280_pressure;Samples;Min_cycle;Max_cycle;Signal;HPM_P1;HPM_P2
2021/09/06 14:17:13;;;;;;;9.38;4.93;;;28.10;97.90;;;;;;6270109;22;20191;-75
2021/09/06 14:19:40;;;;;;;13.40;6.00;;;27.90;97.50;;;;;;6276633;22;20505;-74
2021/09/06 14:22:06;;;;;;;9.23;5.28;;;27.70;97.60;;;;;;6271082;22;20203;-74
2021/09/06 14:24:33;;;;;;;9.63;5.22;;;27.60;98.30;;;;;;6245715;23;20175;-75
2021/09/06 14:27:01;;;;;;;8.98;5.38;;;27.70;98.10;;;;;;6245910;23;20180;-75
2021/09/06 14:29:28;;;;;;;10.60;5.43;;;27.80;97.50;;;;;;6245785;23;20187;-74
2021/09/06 14:31:55;;;;;;;8.30;5.35;;;27.60;98.20;;;;;;6246037;22;20235;-74
2021/09/06 14:34:23;;;;;;;8.68;5.07;;;27.40;98.60;;;;;;6246547;23;20175;-74
2021/09/06 14:36:50;;;;;;;10.57;5.57;;;27.40;98.60;;;;;;6247385;23;20176;-77
2021/09/06 14:39:17;;;;;;;10.82;5.82;;;27.60;98.10;;;;;;6246344;23;20182;-76
2021/09/06 14:41:44;;;;;;;10.07;5.47;;;27.40;97.80;;;;;;6247395;22;20197;-80
2021/09/06 14:44:11;;;;;;;9.35;5.18;;;27.20;98.80;;;;;;6248318;23;20175;-80
2021/09/06 14:46:38;;;;;;;8.35;5.20;;;27.40;98.10;;;;;;6248218;23;20267;-78
2021/09/06 14:49:05;;;;;;;6.95;4.70;;;27.60;98.20;;;;;;6247806;23;20546;-80
2021/09/06 14:51:33;;;;;;;8.00;5.03;;;27.50;97.90;;;;;;6248108;23;20213;-76
2021/09/06 14:54:00;;;;;;;8.80;5.32;;;27.00;98.00;;;;;;6248048;22;20516;-78
2021/09/06 14:56:27;;;;;;;9.98;5.53;;;26.80;98.10;;;;;;6248099;23;20182;-77
2021/09/06 14:58:54;;;;;;;7.95;5.20;;;26.60;98.40;;;;;;6247971;23;20258;-76
2021/09/06 15:01:20;;;;;;;8.52;5.28;;;26.60;98.80;;;;;;6247546;23;20483;-79
2021/09/06 15:03:47;;;;;;;7.75;4.95;;;26.70;97.70;;;;;;6247968;22;20195;-79
2021/09/06 15:06:14;;;;;;;10.38;5.88;;;26.60;98.30;;;;;;6247715;23;20507;-80
2021/09/06 15:08:42;;;;;;;9.18;5.43;;;26.60;97.70;;;;;;6247769;23;20180;-75
2021/09/06 15:11:09;;;;;;;10.02;5.22;;;26.70;98.10;;;;;;6249292;23;20234;-77
2021/09/06 15:13:36;;;;;;;8.27;4.85;;;26.80;97.50;;;;;;6248042;22;20196;-80
2021/09/06 15:16:04;;;;;;;8.20;4.85;;;26.90;97.80;;;;;;6247937;23;20183;-82
2021/09/06 15:18:32;;;;;;;7.95;4.88;;;26.80;97.80;;;;;;6247492;23;20180;-79
2021/09/06 15:20:58;;;;;;;9.32;5.30;;;26.90;97.50;;;;;;6247938;23;20180;-81
2021/09/06 15:23:26;;;;;;;9.32;5.10;;;26.80;97.90;;;;;;6248104;22;20195;-81
2021/09/06 15:25:55;;;;;;;9.80;5.50;;;26.70;97.80;;;;;;6247459;23;20618;-80
2021/09/06 15:28:21;;;;;;;11.50;5.30;;;26.50;98.70;;;;;;6247765;23;20251;-81
2021/09/06 15:31:11;;;;;;;8.32;4.80;;;26.70;98.20;;;;;;6247668;23;20175;-80
2021/09/06 15:33:39;;;;;;;10.45;5.00;;;26.80;98.00;;;;;;6247630;22;20203;-78
2021/09/06 15:36:06;;;;;;;8.90;5.03;;;26.70;98.40;;;;;;6247602;23;20198;-79
2021/09/06 15:38:33;;;;;;;9.15;5.03;;;26.70;98.60;;;;;;6247658;23;20190;-81
2021/09/06 15:41:03;;;;;;;8.13;4.57;;;26.60;98.20;;;;;;6247813;23;20184;-77
2021/09/06 15:43:37;;;;;;;8.45;4.78;;;26.50;97.80;;;;;;6247312;22;20199;-80
2021/09/06 15:46:04;;;;;;;8.95;5.38;;;26.40;98.30;;;;;;6247277;23;20175;-81
2021/09/06 15:48:31;;;;;;;7.70;4.93;;;26.40;97.90;;;;;;6247053;23;20180;-77
2021/09/06 15:50:58;;;;;;;8.00;4.80;;;26.50;97.60;;;;;;6247579;23;20258;-77
2021/09/06 15:53:24;;;;;;;9.88;5.35;;;26.40;98.30;;;;;;6246909;22;20196;-77
2021/09/06 15:55:51;;;;;;;10.00;5.13;;;26.30;96.90;;;;;;6247491;23;20176;-77
2021/09/06 15:58:19;;;;;;;9.60;4.90;;;26.30;97.30;;;;;;6247468;23;20176;-78
2021/09/06 16:00:46;;;;;;;10.10;5.45;;;26.50;97.30;;;;;;6247518;23;20176;-77
2021/09/06 16:03:13;;;;;;;10.23;5.45;;;26.70;97.20;;;;;;6247107;22;20195;-77
2021/09/06 16:05:40;;;;;;;8.85;5.20;;;26.60;98.30;;;;;;6247176;23;20509;-77
2021/09/06 16:08:07;;;;;;;9.35;5.70;;;26.40;98.90;;;;;;6247516;23;20267;-76
2021/09/06 16:10:34;;;;;;;9.48;5.43;;;26.30;98.80;;;;;;6247413;23;20182;-77
2021/09/06 16:13:01;;;;;;;10.32;4.97;;;26.30;99.30;;;;;;6247395;22;20207;-78
2021/09/06 16:15:29;;;;;;;10.07;5.88;;;26.10;99.80;;;;;;6247611;23;20176;-75
2021/09/06 16:17:56;;;;;;;9.20;5.20;;;26.10;99.90;;;;;;6246713;23;20637;-74
2021/09/06 16:20:23;;;;;;;10.30;5.15;;;26.00;99.80;;;;;;6247234;23;20182;-74
2021/09/06 16:22:50;;;;;;;9.88;5.70;;;25.90;99.90;;;;;;6247130;22;20206;-74
2021/09/06 16:25:17;;;;;;;8.70;4.82;;;25.90;99.60;;;;;;6246730;23;20176;-75
2021/09/06 16:27:44;;;;;;;9.35;5.43;;;25.90;99.90;;;;;;6247266;23;20182;-74
2021/09/06 16:30:12;;;;;;;10.45;5.60;;;25.70;99.90;;;;;;6243896;23;20494;-76
2021/09/06 16:32:40;;;;;;;9.52;4.95;;;25.50;99.90;;;;;;6246343;22;20238;-76
2021/09/06 16:35:08;;;;;;;9.43;5.22;;;25.30;99.90;;;;;;6246952;23;20182;-76
2021/09/06 16:37:35;;;;;;;9.20;5.25;;;25.20;99.90;;;;;;6246069;23;20186;-75
2021/09/06 16:40:03;;;;;;;9.60;5.22;;;25.10;99.90;;;;;;6246739;23;20218;-75
2021/09/06 16:42:30;;;;;;;9.25;5.32;;;25.00;99.90;;;;;;6246360;22;20201;-73
2021/09/06 16:44:57;;;;;;;9.98;5.43;;;25.10;99.90;;;;;;6246872;23;20176;-75
2021/09/06 16:47:23;;;;;;;8.40;5.00;;;25.30;99.90;;;;;;6246608;23;20197;-75
2021/09/06 16:49:52;;;;;;;9.85;5.32;;;25.40;99.90;;;;;;6246539;23;20175;-74
2021/09/06 16:52:18;;;;;;;10.63;5.18;;;25.20;99.90;;;;;;6245953;22;20211;-74
2021/09/06 16:54:45;;;;;;;9.32;4.88;;;25.20;99.90;;;;;;6246068;23;20182;-75
2021/09/06 16:57:12;;;;;;;10.77;5.25;;;25.20;99.90;;;;;;6246122;23;20197;-75
2021/09/06 16:59:39;;;;;;;11.98;4.90;;;25.10;99.90;;;;;;6246753;23;20186;-76
2021/09/06 17:02:06;;;;;;;10.77;5.68;;;25.00;99.90;;;;;;6246991;22;20199;-75
2021/09/06 17:04:32;;;;;;;10.73;5.90;;;25.00;99.90;;;;;;6246896;23;20176;-75
2021/09/06 17:07:01;;;;;;;8.43;4.93;;;25.10;99.90;;;;;;6246496;23;20179;-75
2021/09/06 17:09:27;;;;;;;9.75;5.13;;;25.20;99.90;;;;;;6246246;23;20182;-75
2021/09/06 17:11:54;;;;;;;9.57;5.22;;;25.30;99.90;;;;;;6246141;22;20207;-74
2021/09/06 17:14:21;;;;;;;9.07;5.70;;;25.20;99.90;;;;;;6246860;23;20176;-75
2021/09/06 17:16:49;;;;;;;8.45;4.93;;;25.10;99.90;;;;;;6245892;23;20189;-74
2021/09/06 17:19:16;;;;;;;10.10;5.50;;;25.10;99.90;;;;;;6245660;23;20540;-76
2021/09/06 17:21:46;;;;;;;11.63;5.72;;;25.10;99.90;;;;;;6245807;22;20183;-76
2021/09/06 17:24:14;;;;;;;8.18;5.38;;;25.10;99.90;;;;;;6246356;23;20237;-79
2021/09/06 17:26:41;;;;;;;8.95;5.43;;;25.00;99.90;;;;;;6246066;23;20183;-79
2021/09/06 17:29:08;;;;;;;8.13;4.93;;;25.10;99.90;;;;;;6247295;23;20233;-78
2021/09/06 17:31:35;;;;;;;8.43;4.70;;;25.20;99.90;;;;;;6246732;23;20227;-77
2021/09/06 17:34:02;;;;;;;8.75;4.95;;;25.20;99.90;;;;;;6246273;22;20240;-77
2021/09/06 17:36:29;;;;;;;11.20;5.07;;;25.10;99.90;;;;;;6246769;23;20258;-77
2021/09/06 17:38:56;;;;;;;9.55;4.70;;;24.90;99.90;;;;;;6246512;23;20498;-77
2021/09/06 17:41:24;;;;;;;8.73;5.20;;;24.90;99.90;;;;;;6246449;23;20294;-78
2021/09/06 17:43:51;;;;;;;9.98;5.60;;;24.90;99.90;;;;;;6245845;22;20685;-78
2021/09/06 17:46:18;;;;;;;9.73;5.38;;;24.80;99.90;;;;;;6246031;23;20254;-78
2021/09/06 17:48:45;;;;;;;10.38;5.47;;;24.80;99.90;;;;;;6246368;23;20179;-78
2021/09/06 17:51:12;;;;;;;9.10;5.40;;;24.80;99.90;;;;;;6245902;23;20180;-79
2021/09/06 17:53:38;;;;;;;9.52;4.88;;;24.70;99.90;;;;;;6246146;22;20211;-79
2021/09/06 17:56:05;;;;;;;8.52;4.72;;;24.60;99.90;;;;;;6245514;23;20172;-78
2021/09/06 17:58:33;;;;;;;9.43;5.18;;;24.50;99.90;;;;;;6245871;23;20182;-78
2021/09/06 18:01:00;;;;;;;9.55;5.53;;;24.40;99.90;;;;;;6245465;23;20179;-78
2021/09/06 18:03:27;;;;;;;11.93;5.55;;;24.20;99.90;;;;;;6245070;22;20238;-78
2021/09/06 18:05:57;;;;;;;13.57;5.88;;;24.20;99.90;;;;;;6245724;23;20198;-79
2021/09/06 18:08:24;;;;;;;9.10;5.68;;;24.00;99.90;;;;;;6245453;23;20559;-77
2021/09/06 18:10:51;;;;;;;11.70;5.60;;;23.80;99.90;;;;;;6245829;23;20218;-78
2021/09/06 18:13:18;;;;;;;9.68;5.22;;;23.70;99.90;;;;;;6244689;22;20699;-81
2021/09/06 18:15:46;;;;;;;9.65;5.10;;;23.50;99.90;;;;;;6245473;23;20183;-79
2021/09/06 18:18:13;;;;;;;9.32;5.57;;;23.30;99.90;;;;;;6246133;23;20318;-81
2021/09/06 18:20:40;;;;;;;8.20;4.63;;;23.10;99.90;;;;;;6246097;23;20242;-81
2021/09/06 18:23:07;;;;;;;8.50;4.60;;;23.00;99.90;;;;;;6246753;22;20202;-80
2021/09/06 18:25:37;;;;;;;10.60;5.03;;;22.80;99.90;;;;;;6246632;23;20267;-79
2021/09/06 18:28:04;;;;;;;7.78;4.85;;;22.70;99.90;;;;;;6244139;23;20207;-78
2021/09/06 18:30:33;;;;;;;10.50;5.13;;;22.60;99.90;;;;;;6238863;23;20222;-77
2021/09/06 18:33:01;;;;;;;10.23;5.20;;;22.40;99.90;;;;;;6242890;22;20239;-78
2021/09/06 18:35:28;;;;;;;8.82;4.93;;;22.30;99.90;;;;;;6246145;23;20626;-77
2021/09/06 18:37:55;;;;;;;8.43;4.90;;;22.20;99.90;;;;;;6246065;23;20181;-75
2021/09/06 18:40:22;;;;;;;9.60;5.22;;;22.10;99.90;;;;;;6245834;23;20181;-75
2021/09/06 18:42:49;;;;;;;10.90;5.40;;;22.00;99.90;;;;;;6245598;22;20195;-77
2021/09/06 18:45:16;;;;;;;10.98;4.90;;;21.90;99.90;;;;;;6245599;23;20175;-79
2021/09/06 18:47:43;;;;;;;9.35;5.10;;;21.80;99.90;;;;;;6245594;23;20175;-76
2021/09/06 18:50:12;;;;;;;11.05;5.68;;;21.60;99.90;;;;;;6245291;23;20210;-79
2021/09/06 18:52:39;;;;;;;12.80;5.80;;;21.50;99.90;;;;;;6245800;22;20215;-76
2021/09/06 18:55:07;;;;;;;9.13;5.03;;;21.40;99.90;;;;;;6245560;23;20176;-79
2021/09/06 18:57:34;;;;;;;9.93;4.85;;;21.30;99.90;;;;;;6246179;23;20286;-75
2021/09/06 19:00:02;;;;;;;12.15;5.10;;;21.20;99.90;;;;;;6244847;23;20222;-74
2021/09/06 19:02:28;;;;;;;10.02;5.18;;;21.20;99.90;;;;;;6245144;22;20195;-85
2021/09/06 19:04:56;;;;;;;9.07;5.18;;;21.10;99.90;;;;;;6245631;23;20176;-79
2021/09/06 19:07:24;;;;;;;9.15;4.50;;;21.00;99.90;;;;;;6246216;23;20187;-80
2021/09/06 19:09:51;;;;;;;11.05;5.45;;;21.00;99.90;;;;;;6246072;23;20277;-79
2021/09/06 19:12:17;;;;;;;9.95;5.07;;;21.00;99.90;;;;;;6245710;22;20313;-79
2021/09/06 19:14:44;;;;;;;8.23;4.38;;;20.90;99.90;;;;;;6246004;23;20175;-80
2021/09/06 19:17:11;;;;;;;11.05;4.93;;;20.90;99.90;;;;;;6245278;23;20727;-78
2021/09/06 19:19:39;;;;;;;9.20;4.95;;;20.80;99.90;;;;;;6245833;23;20214;-78
2021/09/06 19:22:06;;;;;;;8.35;4.85;;;20.70;99.90;;;;;;6245381;22;20688;-78
2021/09/06 19:24:35;;;;;;;9.95;5.35;;;20.70;99.90;;;;;;6245188;23;20180;-78
2021/09/06 19:27:01;;;;;;;13.35;5.22;;;20.70;99.90;;;;;;6245352;23;20182;-79
2021/09/06 19:29:29;;;;;;;9.95;4.65;;;20.60;99.90;;;;;;6247213;23;20207;-78
2021/09/06 19:31:55;;;;;;;10.05;4.85;;;20.40;99.90;;;;;;6246908;22;20645;-78
2021/09/06 19:34:22;;;;;;;8.40;4.60;;;20.40;99.90;;;;;;6247710;23;20175;-78
2021/09/06 19:36:49;;;;;;;9.23;5.40;;;20.30;99.90;;;;;;6247785;23;20260;-78
2021/09/06 19:39:18;;;;;;;10.13;4.80;;;20.20;99.90;;;;;;6247836;23;20198;-78
2021/09/06 19:41:46;;;;;;;9.65;5.28;;;20.10;99.90;;;;;;6247071;22;20179;-79
2021/09/06 19:44:13;;;;;;;11.80;5.53;;;20.10;99.90;;;;;;6247572;23;20262;-79
2021/09/06 19:46:39;;;;;;;10.60;5.50;;;20.00;99.90;;;;;;6247647;23;20266;-79
2021/09/06 19:49:06;;;;;;;13.02;5.38;;;19.80;99.90;;;;;;6247408;23;20199;-77
2021/09/06 19:51:33;;;;;;;9.45;5.43;;;19.70;99.90;;;;;;6247281;23;20215;-78
2021/09/06 19:54:00;;;;;;;12.27;5.88;;;19.70;99.90;;;;;;6246986;22;20229;-78
2021/09/06 19:56:27;;;;;;;11.63;5.75;;;19.70;99.90;;;;;;6247127;23;20551;-77
2021/09/06 19:58:55;;;;;;;11.18;6.30;;;19.60;99.90;;;;;;6247275;23;20220;-78
2021/09/06 20:01:22;;;;;;;11.13;6.22;;;19.50;99.90;;;;;;6246982;23;20494;-78
2021/09/06 20:03:49;;;;;;;11.45;5.97;;;19.40;99.90;;;;;;6247383;22;20196;-79
2021/09/06 20:06:16;;;;;;;12.73;5.35;;;19.40;99.90;;;;;;6247475;23;20258;-79
2021/09/06 20:08:43;;;;;;;11.23;5.93;;;19.40;99.90;;;;;;6247118;23;20237;-77
2021/09/06 20:11:09;;;;;;;12.30;6.50;;;19.40;99.90;;;;;;6246710;23;20180;-77
2021/09/06 20:13:36;;;;;;;11.52;5.88;;;19.40;99.90;;;;;;6247617;22;20218;-80
2021/09/06 20:16:05;;;;;;;11.73;5.72;;;19.40;99.90;;;;;;6246584;23;20524;-77
2021/09/06 20:18:32;;;;;;;9.70;5.13;;;19.40;99.90;;;;;;6247278;23;20176;-78
2021/09/06 20:20:59;;;;;;;11.40;5.83;;;19.30;99.90;;;;;;6248115;23;20218;-78
2021/09/06 20:23:25;;;;;;;11.00;5.67;;;19.30;99.90;;;;;;6247633;22;20579;-78
2021/09/06 20:25:54;;;;;;;10.77;5.80;;;19.30;99.90;;;;;;6246891;23;20179;-80
2021/09/06 20:28:21;;;;;;;8.43;5.13;;;19.30;99.90;;;;;;6247159;23;20180;-78
